createdAt,value
2018-06-01T00:01:37.851Z,4.12
2018-06-01T00:04:04.190Z,2.97
2018-06-01T00:06:30.511Z,3.57
2018-06-01T00:08:56.886Z,4.20
2018-06-01T00:11:23.226Z,5.15
2018-06-01T00:13:50.321Z,2.10
2018-06-01T00:16:16.659Z,4.68
2018-06-01T00:18:43.043Z,3.42
2018-06-01T00:21:09.383Z,2.13
2018-06-01T00:23:35.740Z,2.60
2018-06-01T00:26:02.235Z,3.50
2018-06-01T00:28:29.326Z,4.43
2018-06-01T00:30:55.673Z,6.62
2018-06-01T00:33:22.036Z,3.27
2018-06-01T00:35:49.132Z,2.70
2018-06-01T00:38:15.485Z,1.90
2018-06-01T00:40:41.802Z,3.30
2018-06-01T00:43:08.150Z,3.15
2018-06-01T00:45:34.545Z,2.33
2018-06-01T00:48:00.880Z,2.57
2018-06-01T00:50:27.289Z,4.47
2018-06-01T00:52:53.604Z,3.85
2018-06-01T00:55:24.705Z,2.90
2018-06-01T00:57:51.065Z,5.20
2018-06-01T01:00:18.185Z,2.87
2018-06-01T01:02:44.538Z,7.53
2018-06-01T01:05:11.641Z,3.80
2018-06-01T01:07:38.738Z,4.15
2018-06-01T01:10:05.890Z,8.32
2018-06-01T01:12:32.235Z,3.85
2018-06-01T01:14:58.603Z,5.25
2018-06-01T01:17:25.004Z,5.03
2018-06-01T01:19:51.397Z,4.10
2018-06-01T01:22:17.763Z,4.40
2018-06-01T01:24:44.091Z,6.75
2018-06-01T01:27:10.462Z,3.58
2018-06-01T01:29:36.833Z,4.40
2018-06-01T01:32:04.082Z,5.55
2018-06-01T01:34:31.174Z,6.18
2018-06-01T01:36:57.494Z,4.53
2018-06-01T01:39:23.953Z,4.80
2018-06-01T01:41:50.371Z,6.62
2018-06-01T01:44:16.684Z,7.30
2018-06-01T01:46:43.048Z,5.57
2018-06-01T01:49:09.375Z,4.70
2018-06-01T01:51:35.750Z,8.32
2018-06-01T01:54:02.135Z,7.90
2018-06-01T01:56:28.470Z,5.07
2018-06-01T01:58:54.837Z,5.65
2018-06-01T02:01:21.921Z,5.10
2018-06-01T02:03:48.280Z,4.72
2018-06-01T02:06:14.601Z,5.00
2018-06-01T02:08:41.654Z,7.25
2018-06-01T02:11:07.979Z,11.05
2018-06-01T02:13:34.289Z,9.63
2018-06-01T02:16:00.637Z,6.45
2018-06-01T02:18:26.970Z,5.62
2018-06-01T02:20:54.071Z,6.03
2018-06-01T02:23:20.532Z,10.43
2018-06-01T02:25:46.953Z,7.28
2018-06-01T02:28:13.306Z,6.22
2018-06-01T02:30:39.721Z,7.10
2018-06-01T02:33:07.077Z,5.78
2018-06-01T02:35:33.425Z,8.00
2018-06-01T02:37:59.714Z,7.72
2018-06-01T02:40:26.127Z,5.73
2018-06-01T02:42:52.471Z,7.35
2018-06-01T02:45:18.838Z,6.53
2018-06-01T02:47:45.902Z,7.22
2018-06-01T02:50:12.571Z,5.85
2018-06-01T02:52:38.915Z,7.05
2018-06-01T02:55:05.286Z,7.25
2018-06-01T02:57:31.682Z,11.70
2018-06-01T02:59:58.036Z,9.43
2018-06-01T03:02:24.562Z,8.23
2018-06-01T03:04:50.934Z,6.65
2018-06-01T03:07:17.352Z,6.82
2018-06-01T03:09:46.419Z,7.45
2018-06-01T03:12:12.828Z,7.85
2018-06-01T03:14:39.222Z,6.65
2018-06-01T03:17:05.543Z,6.70
2018-06-01T03:19:31.906Z,6.60
2018-06-01T03:21:58.298Z,5.57
2018-06-01T03:24:24.672Z,6.50
2018-06-01T03:26:51.857Z,7.65
2018-06-01T03:29:18.258Z,6.30
2018-06-01T03:31:45.136Z,8.50
2018-06-01T03:34:11.533Z,9.77
2018-06-01T03:36:37.861Z,7.20
2018-06-01T03:39:05.045Z,7.62
2018-06-01T03:41:31.400Z,7.03
2018-06-01T03:43:57.794Z,5.82
2018-06-01T03:46:24.130Z,6.28
2018-06-01T03:48:50.623Z,8.15
2018-06-01T03:51:17.236Z,9.35
2018-06-01T03:53:43.583Z,5.28
2018-06-01T03:56:10.674Z,6.20
2018-06-01T03:58:37.018Z,8.60
2018-06-01T04:01:03.398Z,5.87
2018-06-01T04:03:29.972Z,5.62
2018-06-01T04:05:56.334Z,5.87
2018-06-01T04:08:22.692Z,10.27
2018-06-01T04:10:49.846Z,7.18
2018-06-01T04:13:16.218Z,6.43
2018-06-01T04:15:42.555Z,6.07
2018-06-01T04:18:08.939Z,5.60
2018-06-01T04:20:35.305Z,8.75
2018-06-01T04:23:01.662Z,8.23
2018-06-01T04:25:28.006Z,7.15
2018-06-01T04:27:55.116Z,5.93
2018-06-01T04:30:21.580Z,7.12
2018-06-01T04:32:48.082Z,7.47
2018-06-01T04:35:14.645Z,7.70
2018-06-01T04:37:40.990Z,9.38
2018-06-01T04:40:07.410Z,7.00
2018-06-01T04:42:33.793Z,7.43
2018-06-01T04:45:00.246Z,9.63
2018-06-01T04:47:26.588Z,7.55
2018-06-01T04:49:52.919Z,7.75
2018-06-01T04:52:19.235Z,8.97
2018-06-01T04:54:45.594Z,7.18
2018-06-01T04:57:11.966Z,7.20
2018-06-01T04:59:38.328Z,7.80
2018-06-01T05:02:04.722Z,7.40
2018-06-01T05:04:31.070Z,9.10
2018-06-01T05:06:57.450Z,7.50
2018-06-01T05:09:23.757Z,7.27
2018-06-01T05:11:50.081Z,8.57
2018-06-01T05:14:16.450Z,8.07
2018-06-01T05:16:42.864Z,8.17
2018-06-01T05:19:09.255Z,12.27
2018-06-01T05:21:35.590Z,9.30
2018-06-01T05:24:01.928Z,10.13
2018-06-01T05:26:28.260Z,7.50
2018-06-01T05:28:55.201Z,8.07
2018-06-01T05:31:21.509Z,9.00
2018-06-01T05:33:47.972Z,8.30
2018-06-01T05:36:14.281Z,10.17
2018-06-01T05:38:40.624Z,6.47
2018-06-01T05:41:07.024Z,7.63
2018-06-01T05:43:33.411Z,7.23
2018-06-01T05:45:59.919Z,9.60
2018-06-01T05:48:26.654Z,6.80
2018-06-01T05:50:53.068Z,9.90
2018-06-01T05:53:19.769Z,7.40
2018-06-01T05:55:46.207Z,9.70
2018-06-01T05:58:12.871Z,9.50
2018-06-01T06:00:39.236Z,7.93
2018-06-01T06:03:05.773Z,9.13
2018-06-01T06:05:32.114Z,9.83
2018-06-01T06:07:58.537Z,9.53
2018-06-01T06:10:24.905Z,9.80
2018-06-01T06:12:51.275Z,7.00
2018-06-01T06:15:17.612Z,7.30
2018-06-01T06:17:43.990Z,8.27
2018-06-01T06:20:10.376Z,9.40
2018-06-01T06:22:36.873Z,6.53
2018-06-01T06:25:04.114Z,10.10
2018-06-01T06:27:30.467Z,6.07
2018-06-01T06:29:56.899Z,7.00
2018-06-01T06:32:23.251Z,8.70
2018-06-01T06:34:49.650Z,8.60
2018-06-01T06:37:16.482Z,6.67
2018-06-01T06:39:43.887Z,6.40
2018-06-01T06:42:10.615Z,8.77
2018-06-01T06:44:36.946Z,7.07
2018-06-01T06:47:03.338Z,9.03
2018-06-01T06:49:30.493Z,7.20
2018-06-01T06:51:57.545Z,5.93
2018-06-01T06:54:23.897Z,6.83
2018-06-01T06:56:50.251Z,6.67
2018-06-01T06:59:16.664Z,7.40
2018-06-01T07:01:43.046Z,6.67
2018-06-01T07:04:09.426Z,10.87
2018-06-01T07:06:35.875Z,8.93
2018-06-01T07:09:03.078Z,7.60
2018-06-01T07:11:29.535Z,9.07
2018-06-01T07:13:55.872Z,10.27
2018-06-01T07:16:22.235Z,7.97
2018-06-01T07:18:48.645Z,9.53
2018-06-01T07:21:15.083Z,7.07
2018-06-01T07:23:41.477Z,7.60
2018-06-01T07:26:07.935Z,6.87
2018-06-01T07:28:34.493Z,7.60
2018-06-01T07:31:00.991Z,6.93
2018-06-01T07:33:27.525Z,6.67
2018-06-01T07:35:54.058Z,10.53
2018-06-01T07:38:20.518Z,8.13
2018-06-01T07:40:46.990Z,7.17
2018-06-01T07:43:13.386Z,7.60
2018-06-01T07:45:39.766Z,7.07
2018-06-01T07:48:06.971Z,6.77
2018-06-01T07:50:33.390Z,6.77
2018-06-01T07:52:59.767Z,8.37
2018-06-01T07:55:26.218Z,5.37
2018-06-01T07:57:52.587Z,7.47
2018-06-01T08:00:19.011Z,5.43
2018-06-01T08:02:45.381Z,5.20
2018-06-01T08:05:11.683Z,5.97
2018-06-01T08:07:38.064Z,6.13
2018-06-01T08:10:04.545Z,6.70
2018-06-01T08:12:30.857Z,12.03
2018-06-01T08:14:57.446Z,6.40
2018-06-01T08:17:23.815Z,5.80
2018-06-01T08:19:50.319Z,6.90
2018-06-01T08:22:16.790Z,5.90
2018-06-01T08:24:43.138Z,10.07
2018-06-01T08:27:09.517Z,4.90
2018-06-01T08:29:35.951Z,5.47
2018-06-01T08:32:02.367Z,5.63
2018-06-01T08:34:29.484Z,6.87
2018-06-01T08:36:55.951Z,6.00
2018-06-01T08:39:23.135Z,6.20
2018-06-01T08:41:49.547Z,5.30
2018-06-01T08:44:16.156Z,5.60
2018-06-01T08:46:42.698Z,5.93
2018-06-01T08:49:09.267Z,4.90
2018-06-01T08:51:35.893Z,5.20
2018-06-01T08:54:02.273Z,6.43
2018-06-01T08:56:28.663Z,5.97
2018-06-01T08:58:55.035Z,4.97
2018-06-01T09:01:21.464Z,5.80
2018-06-01T09:03:47.895Z,5.60
2018-06-01T09:06:14.335Z,6.23
2018-06-01T09:08:40.652Z,6.53
2018-06-01T09:11:07.132Z,6.10
2018-06-01T09:13:33.502Z,5.10
2018-06-01T09:16:00.507Z,5.13
2018-06-01T09:18:27.037Z,5.90
2018-06-01T09:20:54.280Z,5.80
2018-06-01T09:23:20.681Z,10.17
2018-06-01T09:25:47.079Z,5.20
2018-06-01T09:28:13.732Z,5.07
2018-06-01T09:30:40.769Z,4.97
2018-06-01T09:33:07.188Z,4.33
2018-06-01T09:35:33.523Z,5.10
2018-06-01T09:37:59.871Z,4.00
2018-06-01T09:40:26.246Z,6.60
2018-06-01T09:42:52.706Z,5.07
2018-06-01T09:45:19.866Z,5.40
2018-06-01T09:47:46.223Z,5.43
2018-06-01T09:50:12.625Z,5.97
2018-06-01T09:52:39.012Z,4.20
2018-06-01T09:55:05.437Z,4.97
2018-06-01T09:57:31.831Z,5.77
2018-06-01T09:59:58.202Z,5.43
2018-06-01T10:02:24.618Z,5.47
2018-06-01T10:04:51.025Z,5.37
2018-06-01T10:07:17.548Z,6.03
2018-06-01T10:09:43.988Z,5.43
2018-06-01T10:12:10.323Z,6.10
2018-06-01T10:14:36.723Z,4.70
2018-06-01T10:17:03.168Z,6.03
2018-06-01T10:19:29.604Z,5.90
2018-06-01T10:21:56.042Z,4.20
2018-06-01T10:24:22.499Z,6.37
2018-06-01T10:26:49.019Z,4.70
2018-06-01T10:29:15.458Z,6.47
2018-06-01T10:31:41.860Z,5.70
2018-06-01T10:34:08.224Z,5.90
2018-06-01T10:36:34.595Z,5.73
2018-06-01T10:39:01.074Z,4.30
2018-06-01T10:41:27.572Z,5.37
2018-06-01T10:43:53.957Z,4.10
2018-06-01T10:46:20.476Z,4.50
2018-06-01T10:48:47.693Z,3.90
2018-06-01T10:51:14.059Z,6.90
2018-06-01T10:53:40.459Z,5.03
2018-06-01T10:56:06.968Z,4.20
2018-06-01T10:58:34.098Z,5.03
2018-06-01T11:01:00.606Z,2.97
2018-06-01T11:03:26.988Z,3.97
2018-06-01T11:05:54.153Z,3.67
2018-06-01T11:08:21.084Z,3.07
2018-06-01T11:10:48.279Z,4.43
2018-06-01T11:13:14.727Z,3.27
2018-06-01T11:15:41.098Z,3.00
2018-06-01T11:18:07.450Z,3.17
2018-06-01T11:20:33.918Z,3.70
2018-06-01T11:23:00.345Z,3.83
2018-06-01T11:25:26.654Z,3.73
2018-06-01T11:27:53.214Z,3.10
2018-06-01T11:30:19.627Z,3.23
2018-06-01T11:32:46.046Z,3.83
2018-06-01T11:35:12.447Z,3.13
2018-06-01T11:37:38.939Z,3.50
2018-06-01T11:40:05.274Z,3.10
2018-06-01T11:42:31.714Z,4.17
2018-06-01T11:44:58.860Z,3.80
2018-06-01T11:47:25.334Z,3.17
2018-06-01T11:49:51.713Z,3.87
2018-06-01T11:52:18.112Z,3.53
2018-06-01T11:54:44.515Z,4.30
2018-06-01T11:57:11.152Z,3.10
2018-06-01T11:59:38.345Z,2.70
2018-06-01T12:02:04.769Z,3.37
2018-06-01T12:04:31.159Z,4.17
2018-06-01T12:06:58.292Z,3.97
2018-06-01T12:09:25.963Z,3.30
2018-06-01T12:11:52.361Z,3.83
2018-06-01T12:14:18.886Z,3.70
2018-06-01T12:16:46.155Z,4.80
2018-06-01T12:19:12.566Z,3.57
2018-06-01T12:21:38.975Z,3.40
2018-06-01T12:24:05.354Z,3.43
2018-06-01T12:26:31.749Z,3.60
2018-06-01T12:28:58.126Z,3.90
2018-06-01T12:31:24.477Z,3.37
2018-06-01T12:33:50.919Z,5.10
2018-06-01T12:36:17.273Z,4.40
2018-06-01T12:38:43.649Z,3.37
2018-06-01T12:41:10.120Z,3.57
2018-06-01T12:43:36.713Z,4.70
2018-06-01T12:46:03.816Z,3.50
2018-06-01T12:48:30.327Z,3.80
2018-06-01T12:50:56.677Z,2.30
2018-06-01T12:53:22.983Z,2.80
2018-06-01T12:55:49.392Z,3.13
2018-06-01T12:58:15.819Z,5.60
2018-06-01T13:00:42.179Z,3.50
2018-06-01T13:03:08.564Z,3.40
2018-06-01T13:05:34.961Z,2.73
2018-06-01T13:08:01.345Z,3.00
2018-06-01T13:10:27.694Z,4.00
2018-06-01T13:12:54.159Z,2.73
2018-06-01T13:15:20.627Z,3.63
2018-06-01T13:17:46.985Z,3.03
2018-06-01T13:20:14.124Z,3.67
2018-06-01T13:22:41.249Z,4.00
2018-06-01T13:25:07.656Z,6.30
2018-06-01T13:27:34.187Z,2.63
2018-06-01T13:30:00.569Z,3.37
2018-06-01T13:32:26.945Z,2.90
2018-06-01T13:34:53.359Z,3.13
2018-06-01T13:37:19.732Z,3.67
2018-06-01T13:39:46.092Z,4.00
2018-06-01T13:42:12.585Z,3.27
2018-06-01T13:44:38.990Z,4.23
2018-06-01T13:47:05.535Z,4.13
2018-06-01T13:49:32.047Z,3.10
2018-06-01T13:51:58.428Z,2.90
2018-06-01T13:54:34.483Z,3.23
2018-06-01T13:57:01.024Z,5.53
2018-06-01T13:59:27.495Z,4.87
2018-06-01T14:01:54.610Z,3.03
2018-06-01T14:04:20.966Z,3.63
2018-06-01T14:06:47.543Z,3.43
2018-06-01T14:09:13.993Z,3.23
2018-06-01T14:11:40.401Z,5.27
2018-06-01T14:14:06.736Z,5.10
2018-06-01T14:16:33.156Z,3.53
2018-06-01T14:18:59.584Z,2.70
2018-06-01T14:21:25.956Z,3.20
2018-06-01T14:23:52.322Z,2.27
2018-06-01T14:26:18.687Z,3.00
2018-06-01T14:28:45.113Z,3.13
2018-06-01T14:31:11.484Z,3.30
2018-06-01T14:33:38.151Z,3.20
2018-06-01T14:36:04.536Z,3.40
2018-06-01T14:38:30.938Z,2.40
2018-06-01T14:40:57.262Z,3.53
2018-06-01T14:43:23.649Z,3.30
2018-06-01T14:45:50.071Z,3.77
2018-06-01T14:48:16.535Z,3.07
2018-06-01T14:50:42.994Z,3.23
2018-06-01T14:53:09.335Z,3.50
2018-06-01T14:55:35.694Z,3.47
2018-06-01T14:58:02.069Z,3.53
2018-06-01T15:00:29.162Z,2.60
2018-06-01T15:02:55.534Z,2.80
2018-06-01T15:05:21.983Z,2.53
2018-06-01T15:07:49.102Z,2.20
2018-06-01T15:10:15.488Z,3.10
2018-06-01T15:12:41.808Z,1.77
2018-06-01T15:15:08.342Z,2.57
2018-06-01T15:17:34.803Z,1.77
2018-06-01T15:20:01.196Z,1.90
2018-06-01T15:22:28.282Z,3.10
2018-06-01T15:24:54.612Z,2.03
2018-06-01T15:27:21.003Z,2.83
2018-06-01T15:29:47.373Z,2.40
2018-06-01T15:32:13.762Z,2.53
2018-06-01T15:34:40.231Z,3.10
2018-06-01T15:37:06.602Z,1.90
2018-06-01T15:39:33.740Z,2.10
2018-06-01T15:42:00.072Z,3.00
2018-06-01T15:44:26.399Z,2.13
2018-06-01T15:46:52.799Z,2.13
2018-06-01T15:49:19.128Z,2.27
2018-06-01T15:51:45.526Z,2.70
2018-06-01T15:54:12.800Z,1.87
2018-06-01T15:56:39.238Z,2.70
2018-06-01T15:59:05.699Z,3.00
2018-06-01T16:01:32.060Z,2.30
2018-06-01T16:03:59.237Z,2.50
2018-06-01T16:06:25.678Z,1.83
2018-06-01T16:08:52.130Z,3.17
2018-06-01T16:11:18.559Z,2.53
2018-06-01T16:13:45.518Z,1.67
2018-06-01T16:16:11.896Z,2.33
2018-06-01T16:18:38.264Z,2.50
2018-06-01T16:21:04.676Z,1.60
2018-06-01T16:23:31.002Z,3.10
2018-06-01T16:25:57.458Z,1.77
2018-06-01T16:28:23.811Z,1.70
2018-06-01T16:30:50.222Z,2.20
2018-06-01T16:33:16.846Z,2.07
2018-06-01T16:35:43.373Z,2.87
2018-06-01T16:38:09.704Z,1.70
2018-06-01T16:40:36.106Z,2.73
2018-06-01T16:43:02.507Z,2.40
2018-06-01T16:45:28.872Z,1.90
2018-06-01T16:47:55.325Z,2.00
2018-06-01T16:50:21.687Z,2.43
2018-06-01T16:52:48.644Z,3.40
2018-06-01T16:55:15.099Z,2.33
2018-06-01T16:57:42.230Z,2.17
2018-06-01T17:00:08.634Z,3.10
2018-06-01T17:02:34.999Z,2.30
2018-06-01T17:05:02.086Z,2.30
2018-06-01T17:07:28.421Z,2.17
2018-06-01T17:09:54.760Z,2.43
2018-06-01T17:12:21.063Z,2.17
2018-06-01T17:14:47.605Z,2.43
2018-06-01T17:17:13.999Z,6.20
2018-06-01T17:19:41.223Z,3.77
2018-06-01T17:22:07.548Z,2.23
2018-06-01T17:24:33.953Z,2.90
2018-06-01T17:27:00.362Z,2.40
2018-06-01T17:29:26.706Z,2.60
2018-06-01T17:31:53.186Z,2.57
2018-06-01T17:34:19.576Z,2.00
2018-06-01T17:36:46.099Z,2.57
2018-06-01T17:39:12.624Z,2.80
2018-06-01T17:41:39.151Z,2.30
2018-06-01T17:44:05.573Z,3.33
2018-06-01T17:46:32.663Z,4.10
2018-06-01T17:48:59.059Z,3.00
2018-06-01T17:51:26.268Z,2.73
2018-06-01T17:53:52.873Z,3.07
2018-06-01T17:56:19.342Z,11.97
2018-06-01T17:58:46.654Z,18.90
2018-06-01T18:01:13.102Z,8.47
2018-06-01T18:03:39.527Z,3.67
2018-06-01T18:06:05.927Z,5.53
2018-06-01T18:08:33.178Z,7.60
2018-06-01T18:11:00.300Z,6.93
2018-06-01T18:13:26.797Z,11.77
2018-06-01T18:15:53.682Z,7.40
2018-06-01T18:18:20.125Z,6.83
2018-06-01T18:20:47.454Z,6.83
2018-06-01T18:23:14.064Z,9.83
2018-06-01T18:25:40.416Z,6.73
2018-06-01T18:28:06.745Z,6.30
2018-06-01T18:30:33.218Z,8.03
2018-06-01T18:33:00.327Z,7.27
2018-06-01T18:35:27.088Z,8.10
2018-06-01T18:37:53.489Z,8.40
2018-06-01T18:40:20.674Z,9.30
2018-06-01T18:42:48.572Z,7.60
2018-06-01T18:45:14.976Z,9.40
2018-06-01T18:47:42.102Z,6.80
2018-06-01T18:50:08.564Z,7.07
2018-06-01T18:52:35.150Z,7.37
2018-06-01T18:55:01.615Z,6.80
2018-06-01T18:57:28.327Z,9.23
2018-06-01T18:59:54.784Z,10.10
2018-06-01T19:02:21.167Z,8.90
2018-06-01T19:04:47.611Z,7.77
2018-06-01T19:07:14.008Z,8.93
2018-06-01T19:09:40.400Z,9.00
2018-06-01T19:12:06.907Z,8.67
2018-06-01T19:14:33.280Z,8.77
2018-06-01T19:16:59.670Z,8.33
2018-06-01T19:19:26.055Z,8.70
2018-06-01T19:21:52.424Z,6.93
2018-06-01T19:24:20.650Z,6.90
2018-06-01T19:26:46.982Z,8.17
2018-06-01T19:29:13.355Z,6.83
2018-06-01T19:31:39.716Z,6.27
2018-06-01T19:34:06.084Z,5.20
2018-06-01T19:36:32.574Z,5.00
2018-06-01T19:38:59.190Z,5.97
2018-06-01T19:41:25.563Z,5.50
2018-06-01T19:43:52.657Z,5.37
2018-06-01T19:46:19.079Z,5.43
2018-06-01T19:48:45.546Z,4.27
2018-06-01T19:51:11.953Z,4.40
2018-06-01T19:53:38.391Z,4.50
2018-06-01T19:56:04.796Z,4.60
2018-06-01T19:58:32.051Z,5.20
2018-06-01T20:00:58.503Z,4.90
2018-06-01T20:03:24.952Z,4.67
2018-06-01T20:05:51.392Z,4.00
2018-06-01T20:08:17.765Z,4.33
2018-06-01T20:10:44.999Z,3.27
2018-06-01T20:13:11.393Z,4.30
2018-06-01T20:15:37.914Z,4.60
2018-06-01T20:18:04.903Z,4.37
2018-06-01T20:20:31.286Z,4.90
2018-06-01T20:22:58.112Z,7.40
2018-06-01T20:25:24.675Z,4.30
2018-06-01T20:27:51.053Z,3.23
2018-06-01T20:30:17.521Z,3.47
2018-06-01T20:32:44.044Z,3.80
2018-06-01T20:35:11.678Z,4.00
2018-06-01T20:37:38.263Z,4.13
2018-06-01T20:40:05.177Z,3.37
2018-06-01T20:42:31.535Z,3.23
2018-06-01T20:44:57.937Z,3.50
2018-06-01T20:47:24.274Z,3.57
2018-06-01T20:49:50.648Z,3.97
2018-06-01T20:52:17.063Z,4.37
2018-06-01T20:54:43.608Z,4.30
2018-06-01T20:57:10.109Z,5.17
2018-06-01T20:59:36.534Z,4.37
2018-06-01T21:02:03.528Z,4.53
2018-06-01T21:04:29.983Z,5.67
2018-06-01T21:06:56.359Z,6.00
2018-06-01T21:09:22.921Z,4.60
2018-06-01T21:11:50.051Z,4.77
2018-06-01T21:14:16.464Z,4.30
2018-06-01T21:16:42.916Z,4.90
2018-06-01T21:19:09.347Z,4.90
2018-06-01T21:21:35.720Z,4.10
2018-06-01T21:24:02.188Z,4.33
2018-06-01T21:26:28.641Z,6.10
2018-06-01T21:28:55.034Z,7.33
2018-06-01T21:31:21.387Z,4.63
2018-06-01T21:33:47.759Z,4.67
2018-06-01T21:36:14.091Z,5.10
2018-06-01T21:38:40.721Z,7.53
2018-06-01T21:41:07.066Z,8.17
2018-06-01T21:43:33.491Z,5.63
2018-06-01T21:45:59.886Z,5.00
2018-06-01T21:48:26.244Z,5.80
2018-06-01T21:50:52.744Z,6.23
2018-06-01T21:53:19.135Z,4.90
2018-06-01T21:55:46.397Z,5.10
2018-06-01T21:58:12.823Z,7.20
2018-06-01T22:00:39.931Z,7.80
2018-06-01T22:03:06.360Z,7.60
2018-06-01T22:05:32.818Z,5.80
2018-06-01T22:07:59.235Z,5.80
2018-06-01T22:10:25.607Z,9.17
2018-06-01T22:12:52.043Z,9.53
2018-06-01T22:15:18.471Z,7.17
2018-06-01T22:17:44.847Z,6.20
2018-06-01T22:20:11.388Z,7.47
2018-06-01T22:22:37.786Z,5.20
2018-06-01T22:25:04.218Z,6.10
2018-06-01T22:27:30.573Z,6.10
2018-06-01T22:29:56.964Z,7.50
2018-06-01T22:32:24.054Z,6.10
2018-06-01T22:34:50.427Z,6.03
2018-06-01T22:37:17.594Z,6.67
2018-06-01T22:39:44.045Z,5.80
2018-06-01T22:42:11.367Z,7.13
2018-06-01T22:44:38.504Z,8.80
2018-06-01T22:47:04.954Z,7.07
2018-06-01T22:49:31.302Z,6.87
2018-06-01T22:51:57.643Z,10.73
2018-06-01T22:54:24.080Z,7.33
2018-06-01T22:56:50.482Z,7.27
2018-06-01T22:59:16.827Z,6.57
2018-06-01T23:01:43.201Z,7.07
2018-06-01T23:04:09.618Z,6.80
2018-06-01T23:06:35.968Z,6.63
2018-06-01T23:09:02.397Z,7.60
2018-06-01T23:11:28.790Z,7.87
2018-06-01T23:13:55.149Z,8.57
2018-06-01T23:16:21.451Z,8.33
2018-06-01T23:18:48.177Z,8.10
2018-06-01T23:21:14.525Z,7.75
2018-06-01T23:23:40.895Z,7.53
2018-06-01T23:26:07.240Z,9.97
2018-06-01T23:28:35.734Z,8.23
2018-06-01T23:31:02.308Z,7.55
2018-06-01T23:33:28.941Z,8.30
2018-06-01T23:35:55.250Z,7.77
2018-06-01T23:38:21.877Z,9.50
2018-06-01T23:40:48.222Z,7.63
2018-06-01T23:43:15.435Z,7.97
2018-06-01T23:45:41.851Z,9.68
2018-06-01T23:48:09.626Z,8.07
2018-06-01T23:50:35.967Z,8.55
2018-06-01T23:53:03.167Z,7.57
2018-06-01T23:55:29.624Z,8.60
2018-06-01T23:57:55.980Z,9.05
